Time;durP1;ratioP1;P1;durP2;ratioP2;P2;SDS_P1;SDS_P2;PMS_P1;PMS_P2;Temp;Humidity;BMP_temperature;BMP_pressure;BME280_temperature;BME280_humidity;BME280_pressure;Samples;Min_cycle;Max_cycle;Signal;HPM_P1;HPM_P2
2021/08/15 00:02:11;;;;;;;14.60;7.75;;;;;;;17.90;66.97;93584.56;5111695;28;20048;-80
2021/08/15 00:04:38;;;;;;;11.10;6.90;;;;;;;17.83;66.60;93566.56;5111527;28;20063;-79
2021/08/15 00:07:07;;;;;;;10.05;6.45;;;;;;;17.92;66.97;93587.72;5111468;28;20051;-79
2021/08/15 00:09:34;;;;;;;10.65;6.63;;;;;;;17.89;66.80;93578.59;5111872;28;20134;-79
2021/08/15 00:12:03;;;;;;;11.93;6.20;;;;;;;17.90;66.56;93580.16;5111323;28;20066;-79
2021/08/15 00:14:30;;;;;;;13.43;6.97;;;;;;;17.90;66.58;93582.75;5111649;28;20055;-80
2021/08/15 00:16:57;;;;;;;10.18;6.57;;;;;;;17.77;67.49;93589.13;5111642;28;20055;-79
2021/08/15 00:19:23;;;;;;;14.73;7.50;;;;;;;17.72;67.64;93585.66;5111455;28;20051;-79
2021/08/15 00:21:51;;;;;;;11.65;6.90;;;;;;;17.40;67.92;93539.66;5111608;28;20048;-79
2021/08/15 00:24:19;;;;;;;11.80;7.25;;;;;;;17.52;68.24;93568.88;5111166;28;20131;-80
2021/08/15 00:26:46;;;;;;;11.38;6.35;;;;;;;17.47;68.72;93581.78;5111434;28;20047;-79
2021/08/15 00:29:12;;;;;;;26.75;8.30;;;;;;;17.48;68.49;93581.56;5111092;28;20054;-79
2021/08/15 00:31:39;;;;;;;10.30;6.47;;;;;;;17.48;68.42;93583.34;5110981;28;20513;-79
2021/08/15 00:34:06;;;;;;;13.70;6.28;;;;;;;17.49;68.67;93584.91;5111003;28;20492;-79
2021/08/15 00:36:33;;;;;;;11.90;6.95;;;;;;;17.40;68.87;93579.38;5111296;28;20501;-79
2021/08/15 00:39:00;;;;;;;9.75;6.60;;;;;;;17.21;69.05;93556.31;5110863;28;20051;-79
2021/08/15 00:41:28;;;;;;;12.68;6.32;;;;;;;17.39;68.96;93583.00;5111197;28;20053;-79
2021/08/15 00:43:55;;;;;;;12.00;6.38;;;;;;;17.42;68.49;93577.34;5110806;28;20052;-79
2021/08/15 00:46:22;;;;;;;17.25;6.63;;;;;;;17.32;68.98;93583.19;5110852;28;20044;-79
2021/08/15 00:48:50;;;;;;;11.55;6.78;;;;;;;17.28;68.92;93573.53;5110489;28;20051;-79
2021/08/15 00:51:17;;;;;;;15.57;7.00;;;;;;;17.30;69.04;93585.25;5110099;28;20059;-79
2021/08/15 00:53:43;;;;;;;14.23;5.97;;;;;;;17.27;69.13;93575.34;5110471;28;20492;-79
2021/08/15 00:56:10;;;;;;;15.45;5.97;;;;;;;17.23;69.11;93571.66;5110886;28;20048;-79
2021/08/15 00:58:39;;;;;;;12.05;6.30;;;;;;;17.25;69.32;93584.41;5110724;28;20063;-79
2021/08/15 01:01:06;;;;;;;9.20;6.43;;;;;;;17.11;69.59;93576.97;5110428;28;20051;-79
2021/08/15 01:03:33;;;;;;;11.20;6.47;;;;;;;16.98;69.28;93551.34;5110740;28;20047;-79
2021/08/15 01:06:01;;;;;;;12.35;6.43;;;;;;;17.13;69.30;93564.53;5110626;28;20051;-77
2021/08/15 01:08:29;;;;;;;12.80;7.13;;;;;;;17.03;69.53;93559.25;5110326;28;20504;-79
2021/08/15 01:10:56;;;;;;;11.40;7.00;;;;;;;16.95;69.58;93558.56;5110349;28;20050;-79
2021/08/15 01:13:23;;;;;;;9.95;6.20;;;;;;;16.99;69.92;93578.88;5110531;28;20092;-79
2021/08/15 01:15:53;;;;;;;11.68;6.35;;;;;;;16.94;69.89;93577.78;5110718;28;20070;-79
2021/08/15 01:18:24;;;;;;;12.68;6.68;;;;;;;16.93;69.62;93576.22;5110526;28;20105;-78
2021/08/15 01:20:57;;;;;;;10.38;6.07;;;;;;;16.79;70.26;93573.19;5110547;28;20043;-78
2021/08/15 01:23:24;;;;;;;12.27;6.53;;;;;;;16.70;70.96;93570.22;5110105;28;20496;-78
2021/08/15 01:25:51;;;;;;;14.60;7.25;;;;;;;16.73;70.72;93576.72;5110040;28;20579;-78
2021/08/15 01:28:19;;;;;;;11.18;6.18;;;;;;;16.76;70.72;93578.06;5110095;28;20496;-78
2021/08/15 01:30:46;;;;;;;13.25;6.20;;;;;;;16.77;70.43;93572.63;5109975;28;20043;-79
2021/08/15 01:33:24;;;;;;;13.18;6.28;;;;;;;16.68;70.49;93561.84;5110430;28;20052;-78
2021/08/15 01:35:52;;;;;;;9.95;6.10;;;;;;;16.74;70.71;93574.91;5110217;28;20047;-78
2021/08/15 01:38:19;;;;;;;9.18;6.45;;;;;;;16.65;70.90;93570.13;5110108;28;20163;-78
2021/08/15 01:40:46;;;;;;;12.25;5.80;;;;;;;16.64;70.79;93573.75;5109911;28;20074;-78
2021/08/15 01:43:13;;;;;;;9.82;6.72;;;;;;;16.62;71.37;93575.78;5109893;28;20043;-79
2021/08/15 01:45:41;;;;;;;15.10;6.05;;;;;;;16.62;71.39;93573.19;5109975;28;20051;-79
2021/08/15 01:48:08;;;;;;;11.02;5.97;;;;;;;16.56;71.52;93572.34;5109944;28;20082;-79
2021/08/15 01:50:35;;;;;;;10.48;6.22;;;;;;;16.49;71.92;93578.72;5109713;28;20051;-79
2021/08/15 01:53:02;;;;;;;11.65;6.97;;;;;;;16.37;72.74;93569.22;5109694;28;20040;-79
2021/08/15 01:55:29;;;;;;;13.15;6.57;;;;;;;16.25;73.40;93571.13;5110142;28;20059;-79
2021/08/15 01:57:56;;;;;;;10.18;6.88;;;;;;;16.21;73.53;93570.00;5109656;28;20085;-78
2021/08/15 02:00:23;;;;;;;11.40;6.35;;;;;;;16.15;73.79;93575.09;5109290;28;20058;-78
2021/08/15 02:02:51;;;;;;;12.60;6.65;;;;;;;16.16;73.78;93576.66;5109691;28;20043;-79
2021/08/15 02:05:19;;;;;;;15.05;6.75;;;;;;;16.09;74.33;93585.63;5109588;28;20081;-79
2021/08/15 02:07:46;;;;;;;10.35;6.53;;;;;;;16.02;75.45;93575.41;5109839;28;20488;-78
2021/08/15 02:10:13;;;;;;;13.20;7.00;;;;;;;16.03;74.89;93575.16;5109426;28;20564;-78
2021/08/15 02:12:41;;;;;;;11.32;6.63;;;;;;;16.05;74.75;93574.94;5109713;28;20056;-79
2021/08/15 02:15:08;;;;;;;11.05;6.97;;;;;;;16.09;74.87;93570.88;5109345;28;20050;-78
2021/08/15 02:17:35;;;;;;;11.38;7.25;;;;;;;16.10;74.55;93571.66;5109714;28;20054;-78
2021/08/15 02:20:05;;;;;;;9.30;6.72;;;;;;;16.06;74.50;93568.72;5109465;28;20180;-79
2021/08/15 02:22:32;;;;;;;11.05;6.55;;;;;;;16.03;74.34;93567.41;5109560;28;20097;-78
2021/08/15 02:24:59;;;;;;;9.50;7.03;;;;;;;16.12;73.80;93570.38;5109291;28;20047;-78
2021/08/15 02:27:26;;;;;;;11.85;6.93;;;;;;;16.15;73.70;93575.09;5109385;28;20059;-78
2021/08/15 02:29:53;;;;;;;9.48;6.10;;;;;;;15.98;73.89;93554.34;5109516;28;20485;-78
2021/08/15 02:32:19;;;;;;;9.88;6.68;;;;;;;16.09;73.57;93568.28;5109618;28;20096;-78
2021/08/15 02:34:46;;;;;;;14.25;6.85;;;;;;;16.16;73.55;93574.09;5109364;28;20092;-78
2021/08/15 02:37:14;;;;;;;9.73;6.18;;;;;;;16.10;73.64;93564.66;5109358;28;20048;-77
2021/08/15 02:39:41;;;;;;;11.90;6.65;;;;;;;16.01;73.82;93561.66;5109466;28;20068;-77
2021/08/15 02:42:08;;;;;;;11.77;6.82;;;;;;;16.10;73.50;93572.44;5109756;28;20066;-78
2021/08/15 02:44:35;;;;;;;10.10;6.20;;;;;;;16.05;73.83;93569.00;5109589;28;20052;-77
2021/08/15 02:47:02;;;;;;;14.23;7.30;;;;;;;16.05;73.62;93574.94;5109131;28;20048;-78
2021/08/15 02:49:29;;;;;;;13.60;6.88;;;;;;;15.99;73.59;93562.94;5109234;28;20056;-78
2021/08/15 02:51:55;;;;;;;11.40;6.57;;;;;;;15.93;74.08;93564.66;5109335;28;20089;-78
2021/08/15 02:54:23;;;;;;;11.00;7.35;;;;;;;15.96;73.94;93574.53;5109554;28;20060;-78
2021/08/15 02:56:50;;;;;;;15.63;6.60;;;;;;;15.87;74.49;93575.91;5109407;28;20051;-78
2021/08/15 02:59:17;;;;;;;12.15;6.57;;;;;;;15.77;74.89;93566.16;5109252;28;20051;-78
2021/08/15 03:01:44;;;;;;;11.70;7.05;;;;;;;15.67;75.32;93560.81;5109487;28;20055;-78
2021/08/15 03:04:11;;;;;;;10.20;6.88;;;;;;;15.62;75.49;93559.72;5109233;28;20044;-78
2021/08/15 03:06:39;;;;;;;16.35;7.07;;;;;;;15.62;75.93;93569.28;5109269;28;20047;-78
2021/08/15 03:09:06;;;;;;;11.23;6.75;;;;;;;15.58;76.25;93584.50;5108889;28;20547;-78
2021/08/15 03:11:34;;;;;;;10.75;6.88;;;;;;;15.60;75.75;93571.31;5108903;28;20057;-78
2021/08/15 03:14:01;;;;;;;12.35;6.80;;;;;;;15.52;76.45;93588.00;5110921;28;20176;-78
2021/08/15 03:16:28;;;;;;;13.15;7.35;;;;;;;15.52;76.04;93585.41;5113225;28;20056;-78
2021/08/15 03:18:55;;;;;;;11.13;6.70;;;;;;;15.59;75.88;93587.84;5112943;28;20093;-78
2021/08/15 03:21:24;;;;;;;11.48;6.95;;;;;;;15.60;75.21;93587.63;5112720;28;20453;-78
2021/08/15 03:23:51;;;;;;;12.23;6.82;;;;;;;15.56;75.42;93583.16;5112756;28;20409;-78
2021/08/15 03:26:18;;;;;;;9.90;6.65;;;;;;;15.55;75.52;93587.53;5112605;28;20040;-78
2021/08/15 03:28:46;;;;;;;9.70;6.43;;;;;;;15.54;75.42;93587.75;5112693;28;20047;-78
2021/08/15 03:31:13;;;;;;;16.02;7.15;;;;;;;15.52;75.13;93587.22;5112565;28;20047;-78
2021/08/15 03:33:39;;;;;;;10.43;6.60;;;;;;;15.46;75.85;93584.53;5112431;28;20093;-78
2021/08/15 03:36:06;;;;;;;11.32;6.63;;;;;;;15.47;75.35;93590.50;5112279;28;20077;-77
2021/08/15 03:38:33;;;;;;;15.52;7.53;;;;;;;15.51;75.47;93591.63;5112398;28;20044;-77
2021/08/15 03:41:00;;;;;;;11.45;6.85;;;;;;;15.49;75.54;93591.84;5112274;28;20404;-77
2021/08/15 03:43:26;;;;;;;11.65;6.78;;;;;;;15.32;76.29;93586.59;5112356;28;20092;-77
2021/08/15 03:45:55;;;;;;;13.88;7.38;;;;;;;15.32;76.66;93601.34;5112106;28;20043;-77
2021/08/15 03:48:21;;;;;;;16.48;7.32;;;;;;;15.34;76.86;93599.31;5082636;28;20056;-77
2021/08/15 03:50:48;;;;;;;16.13;8.25;;;;;;;15.27;77.62;93593.47;5071447;28;20557;-78
2021/08/15 03:53:15;;;;;;;12.73;7.03;;;;;;;15.30;77.36;93596.41;5098746;28;20048;-77
2021/08/15 03:55:42;;;;;;;19.48;7.35;;;;;;;15.30;77.05;93593.00;5111922;28;20519;-77
2021/08/15 03:58:09;;;;;;;18.75;7.85;;;;;;;15.27;77.42;93602.00;5097343;28;20439;-78
2021/08/15 04:00:40;;;;;;;19.95;8.52;;;;;;;15.30;76.83;93593.81;5071396;28;20052;-78
2021/08/15 04:03:08;;;;;;;16.35;8.32;;;;;;;15.33;77.00;93597.75;5096327;28;20511;-77
2021/08/15 04:05:35;;;;;;;19.20;7.57;;;;;;;15.33;77.17;93590.75;5111963;28;20051;-77
2021/08/15 04:08:02;;;;;;;14.13;7.45;;;;;;;15.34;77.79;93592.34;5105945;28;20043;-77
2021/08/15 04:10:29;;;;;;;15.30;7.75;;;;;;;15.36;77.39;93587.72;5105749;28;20417;-77
2021/08/15 04:12:55;;;;;;;11.93;7.20;;;;;;;15.33;77.80;93585.56;5070887;28;20559;-77
2021/08/15 04:15:22;;;;;;;20.73;7.65;;;;;;;15.38;77.44;93584.91;5075309;28;20048;-78
2021/08/15 04:17:49;;;;;;;14.27;7.50;;;;;;;15.38;77.27;93581.50;5093119;28;20056;-78
2021/08/15 04:20:17;;;;;;;17.73;8.68;;;;;;;15.38;77.97;93587.50;5085619;28;20068;-79
2021/08/15 04:22:44;;;;;;;12.85;7.97;;;;;;;15.42;77.68;93586.00;5089286;28;20040;-78
2021/08/15 04:25:11;;;;;;;20.17;7.75;;;;;;;15.45;77.47;93592.50;5089779;28;20055;-78
2021/08/15 04:27:38;;;;;;;14.35;7.32;;;;;;;15.45;77.70;93595.09;5082919;28;20055;-78
2021/08/15 04:30:07;;;;;;;17.88;8.18;;;;;;;15.47;77.43;93599.03;5083763;28;20060;-78
2021/08/15 04:32:34;;;;;;;14.30;7.97;;;;;;;15.46;78.12;93596.69;5083054;28;20044;-77
2021/08/15 04:35:01;;;;;;;23.80;8.73;;;;;;;15.52;77.54;93595.78;5070941;28;20044;-77
2021/08/15 04:37:29;;;;;;;16.52;8.05;;;;;;;15.58;78.29;93602.63;5088352;28;20515;-77
2021/08/15 04:39:56;;;;;;;19.83;8.02;;;;;;;15.49;77.70;93578.09;5090575;28;20052;-78
2021/08/15 04:42:23;;;;;;;24.83;9.55;;;;;;;15.65;78.02;93597.31;5090409;28;20055;-78
2021/08/15 04:44:50;;;;;;;24.25;9.02;;;;;;;15.72;78.21;93599.75;5082512;28;20406;-75
2021/08/15 04:47:16;;;;;;;17.13;8.27;;;;;;;15.70;78.20;93587.00;5090677;28;20113;-76
2021/08/15 04:49:43;;;;;;;21.27;8.80;;;;;;;15.82;77.52;93599.91;5090186;28;20063;-76
2021/08/15 04:52:10;;;;;;;17.98;8.57;;;;;;;15.92;77.12;93595.94;5090733;28;20050;-78
2021/08/15 04:54:38;;;;;;;30.38;9.45;;;;;;;16.06;76.43;93599.06;5090361;28;20060;-77
2021/08/15 04:57:05;;;;;;;18.77;8.55;;;;;;;16.12;77.38;93603.31;5090556;28;20051;-79
2021/08/15 04:59:32;;;;;;;26.15;7.72;;;;;;;16.20;76.99;93602.91;5090165;28;20044;-78
2021/08/15 05:02:01;;;;;;;14.38;8.38;;;;;;;16.33;75.41;93606.22;5090301;28;20562;-78
2021/08/15 05:04:27;;;;;;;22.02;8.43;;;;;;;16.41;75.89;93611.81;5090122;28;20050;-77
2021/08/15 05:06:54;;;;;;;14.95;8.57;;;;;;;16.50;75.73;93611.41;5090410;28;20044;-80
2021/08/15 05:09:21;;;;;;;16.42;8.75;;;;;;;16.51;76.26;93611.16;5090174;28;20052;-81
2021/08/15 05:11:49;;;;;;;13.48;8.80;;;;;;;16.63;75.59;93618.88;5086950;28;20043;-80
2021/08/15 05:14:16;;;;;;;15.77;8.73;;;;;;;16.67;75.14;93598.44;5088104;28;20055;-80
2021/08/15 05:16:43;;;;;;;14.63;7.45;;;;;;;16.76;75.14;93616.97;5088828;28;20250;-79
2021/08/15 05:19:10;;;;;;;17.35;8.93;;;;;;;16.77;74.63;93610.75;5089368;28;20044;-80
2021/08/15 05:21:36;;;;;;;17.88;9.90;;;;;;;16.75;76.57;93594.66;5089913;28;20501;-80
2021/08/15 05:24:03;;;;;;;20.00;9.30;;;;;;;16.80;77.95;93620.66;5089626;28;20055;-80
2021/08/15 05:26:30;;;;;;;14.50;8.40;;;;;;;16.61;78.53;93597.56;5088862;28;20048;-80
2021/08/15 05:28:58;;;;;;;17.13;8.93;;;;;;;16.77;75.91;93615.94;5078187;28;20060;-79
2021/08/15 05:31:25;;;;;;;14.63;7.90;;;;;;;16.94;75.71;93621.13;5088842;28;20052;-79
2021/08/15 05:33:52;;;;;;;14.63;8.45;;;;;;;17.04;77.01;93626.44;5089605;28;20455;-79
2021/08/15 05:36:19;;;;;;;14.82;7.63;;;;;;;17.11;75.92;93612.53;5089241;28;20044;-79
2021/08/15 05:38:45;;;;;;;17.77;8.23;;;;;;;17.28;76.48;93610.69;5089749;28;20421;-79
2021/08/15 05:41:12;;;;;;;18.08;8.52;;;;;;;17.39;76.01;93614.16;5089662;28;20059;-79
2021/08/15 05:43:39;;;;;;;12.25;8.38;;;;;;;17.49;76.00;93614.28;5088143;28;20106;-79
2021/08/15 05:46:07;;;;;;;15.70;8.23;;;;;;;17.60;74.98;93609.22;5089835;28;20052;-79
2021/08/15 05:48:34;;;;;;;14.63;8.70;;;;;;;17.70;73.13;93598.13;5089695;28;20052;-79
2021/08/15 05:51:02;;;;;;;15.40;8.10;;;;;;;17.97;73.70;93605.91;5089044;28;20063;-80
2021/08/15 05:53:29;;;;;;;16.77;8.13;;;;;;;18.10;72.76;93604.78;5089342;28;20500;-80
2021/08/15 05:55:56;;;;;;;15.23;8.02;;;;;;;18.21;72.31;93610.06;5089552;28;20044;-80
2021/08/15 05:58:22;;;;;;;15.10;8.52;;;;;;;18.45;71.71;93610.53;5089137;28;20440;-81
2021/08/15 06:00:50;;;;;;;16.90;8.80;;;;;;;18.40;71.14;93602.69;5089332;28;20055;-80
2021/08/15 06:03:18;;;;;;;27.85;13.25;;;;;;;18.68;69.56;93612.00;5089108;28;20499;-80
2021/08/15 06:05:45;;;;;;;24.58;13.60;;;;;;;18.86;69.05;93591.00;5089779;28;20052;-80
2021/08/15 06:08:14;;;;;;;27.52;13.13;;;;;;;19.29;66.26;93596.19;5089485;28;20048;-80
2021/08/15 06:10:40;;;;;;;41.80;18.58;;;;;;;19.56;66.23;93608.25;5089073;28;20054;-81
2021/08/15 06:13:09;;;;;;;60.13;24.98;;;;;;;19.81;64.92;93596.34;5089319;28;20059;-81
2021/08/15 06:15:35;;;;;;;42.00;20.05;;;;;;;20.16;62.82;93579.22;5089246;28;20097;-80
2021/08/15 06:18:02;;;;;;;44.38;20.80;;;;;;;20.26;62.26;93601.91;5089193;28;20470;-80
2021/08/15 06:20:31;;;;;;;44.58;19.65;;;;;;;20.40;61.53;93587.31;5089168;28;20082;-84
2021/08/15 06:22:57;;;;;;;44.05;20.20;;;;;;;20.69;61.15;93599.81;5089228;28;20040;-82
2021/08/15 06:25:24;;;;;;;44.55;22.67;;;;;;;20.98;59.83;93579.41;5088914;28;20062;-82
2021/08/15 06:27:51;;;;;;;41.17;17.33;;;;;;;21.34;58.45;93600.19;5088785;28;20401;-82
2021/08/15 06:30:21;;;;;;;37.22;16.70;;;;;;;21.87;57.30;93598.91;5088960;28;20056;-82
2021/08/15 06:32:49;;;;;;;36.58;16.80;;;;;;;22.18;56.41;93596.09;5088813;28;20500;-82
2021/08/15 06:35:17;;;;;;;26.85;13.68;;;;;;;22.50;53.70;93594.78;5088639;28;20512;-82
2021/08/15 06:37:46;;;;;;;38.90;16.90;;;;;;;22.87;53.58;93597.13;5089085;28;20086;-81
2021/08/15 06:40:14;;;;;;;33.00;16.45;;;;;;;23.07;52.29;93602.16;5088521;28;20056;-82
2021/08/15 06:42:40;;;;;;;26.88;13.02;;;;;;;23.34;51.31;93592.19;5088538;28;20048;-82
2021/08/15 06:45:09;;;;;;;20.50;10.40;;;;;;;23.43;50.46;93576.63;5089162;28;20052;-82
2021/08/15 06:47:36;;;;;;;19.60;9.48;;;;;;;24.01;48.54;93586.06;5088813;28;20051;-82
2021/08/15 06:50:03;;;;;;;20.92;10.73;;;;;;;24.41;48.18;93591.03;5092706;28;20059;-82
2021/08/15 06:52:30;;;;;;;17.60;9.23;;;;;;;24.57;46.86;93574.22;5092601;28;20094;-82
2021/08/15 06:55:02;;;;;;;17.88;9.45;;;;;;;24.59;46.11;93559.75;5092960;28;20071;-83
2021/08/15 06:57:29;;;;;;;15.55;8.73;;;;;;;24.59;47.31;93572.88;5092866;28;20056;-83
2021/08/15 06:59:56;;;;;;;23.65;8.52;;;;;;;25.10;46.65;93583.56;5092462;28;20615;-81
2021/08/15 07:02:23;;;;;;;10.88;6.82;;;;;;;25.48;46.17;93582.56;5092250;28;20040;-82
2021/08/15 07:04:50;;;;;;;15.13;7.30;;;;;;;25.97;43.95;93582.84;5092369;28;20101;-83
2021/08/15 07:07:16;;;;;;;12.48;7.07;;;;;;;26.20;43.04;93574.97;5092366;28;20076;-83
2021/08/15 07:09:43;;;;;;;16.90;8.95;;;;;;;26.20;42.59;93576.84;5092065;28;20052;-82
2021/08/15 07:12:11;;;;;;;25.42;8.88;;;;;;;26.48;43.21;93582.00;5092686;28;20455;-83
2021/08/15 07:14:41;;;;;;;15.85;8.30;;;;;;;26.61;42.27;93581.13;5092467;28;20071;-83
2021/08/15 07:17:08;;;;;;;14.00;8.57;;;;;;;25.33;44.59;93573.13;5092096;28;20089;-83
2021/08/15 07:19:35;;;;;;;16.00;7.10;;;;;;;25.28;44.61;93555.63;5092147;28;20101;-82
2021/08/15 07:22:02;;;;;;;13.15;6.55;;;;;;;25.71;44.59;93574.75;5091778;28;20126;-83
2021/08/15 07:24:30;;;;;;;11.63;6.40;;;;;;;25.92;42.65;93548.75;5087642;28;20056;-84
2021/08/15 07:26:57;;;;;;;15.15;7.53;;;;;;;26.06;42.67;93561.88;5090334;28;20139;-84
2021/08/15 07:29:26;;;;;;;11.52;6.50;;;;;;;25.81;42.62;93565.84;5091226;28;20079;-84
2021/08/15 07:31:53;;;;;;;13.95;6.75;;;;;;;26.07;42.39;93575.81;5091553;28;20410;-84
2021/08/15 07:34:21;;;;;;;9.48;5.60;;;;;;;25.71;43.07;93574.75;5092155;28;20044;-84
2021/08/15 07:36:47;;;;;;;15.05;6.65;;;;;;;25.84;42.45;93560.00;5091680;28;20062;-83
2021/08/15 07:39:15;;;;;;;13.15;6.38;;;;;;;26.19;42.51;93555.00;5091860;28;20067;-84
2021/08/15 07:41:42;;;;;;;12.57;6.05;;;;;;;26.64;41.31;93532.34;5091814;28;20052;-84
2021/08/15 07:44:09;;;;;;;15.70;6.38;;;;;;;27.14;40.83;93510.22;5091760;28;20056;-83
2021/08/15 07:46:37;;;;;;;17.38;6.55;;;;;;;28.01;39.43;93561.53;5091530;28;20422;-83
2021/08/15 07:49:04;;;;;;;13.45;6.03;;;;;;;27.77;38.15;93564.63;5091482;28;20052;-84
2021/08/15 07:51:31;;;;;;;12.45;6.03;;;;;;;27.33;38.67;93564.53;5091594;28;20063;-84
2021/08/15 07:53:58;;;;;;;14.55;6.75;;;;;;;27.02;39.80;93558.25;5092082;28;20070;-83
2021/08/15 07:56:26;;;;;;;13.95;6.35;;;;;;;27.50;39.67;93544.56;5091560;28;20055;-83
2021/08/15 07:58:52;;;;;;;19.52;7.03;;;;;;;27.64;38.65;93553.16;5091094;28;20051;-83
2021/08/15 08:01:19;;;;;;;14.52;6.10;;;;;;;27.76;38.46;93535.94;5091223;28;20055;-83
2021/08/15 08:03:47;;;;;;;16.45;6.90;;;;;;;28.30;37.40;93548.00;5091163;28;20526;-84
2021/08/15 08:06:14;;;;;;;16.35;7.22;;;;;;;28.41;37.05;93551.88;5091432;28;20134;-84
2021/08/15 08:08:41;;;;;;;13.32;6.38;;;;;;;28.01;36.95;93550.22;5091219;28;20052;-84
2021/08/15 08:11:08;;;;;;;16.92;6.85;;;;;;;28.28;37.32;93556.28;5090916;28;20520;-83
2021/08/15 08:13:35;;;;;;;11.85;6.32;;;;;;;28.62;37.15;93551.22;5090967;28;20515;-84
2021/08/15 08:16:02;;;;;;;11.18;6.60;;;;;;;28.75;36.98;93546.81;5090804;28;20044;-84
2021/08/15 08:18:29;;;;;;;13.75;6.95;;;;;;;28.67;36.34;93546.53;5091035;28;20394;-85
2021/08/15 08:20:57;;;;;;;13.27;5.90;;;;;;;27.95;36.98;93490.72;5091214;28;20048;-85
2021/08/15 08:23:24;;;;;;;12.93;5.43;;;;;;;28.68;35.44;93539.38;5090611;28;20048;-83
2021/08/15 08:25:51;;;;;;;16.20;5.07;;;;;;;28.65;35.29;93540.03;5091100;28;20127;-85
2021/08/15 08:28:18;;;;;;;9.25;4.97;;;;;;;28.70;34.86;93489.63;5090280;28;20048;-85
2021/08/15 08:30:44;;;;;;;12.02;5.35;;;;;;;29.42;34.71;93511.97;5090252;28;20965;-84
2021/08/15 08:33:11;;;;;;;14.40;5.68;;;;;;;29.31;32.28;93443.56;5091269;28;20408;-85
2021/08/15 08:35:38;;;;;;;12.50;5.10;;;;;;;30.06;32.58;93518.03;5090338;28;20044;-84
2021/08/15 08:38:06;;;;;;;13.82;4.80;;;;;;;30.29;32.92;93512.38;5070530;28;20421;-84
2021/08/15 08:40:33;;;;;;;8.10;4.65;;;;;;;30.88;32.26;93515.03;5085524;28;20158;-84
2021/08/15 08:43:00;;;;;;;10.23;5.05;;;;;;;31.04;31.68;93496.56;5090359;28;20417;-86
2021/08/15 08:45:29;;;;;;;7.55;4.70;;;;;;;29.55;31.60;93459.91;5090549;28;20497;-85
2021/08/15 08:47:56;;;;;;;8.85;4.03;;;;;;;29.98;32.02;93501.13;5090385;28;20083;-84
2021/08/15 08:50:24;;;;;;;8.95;4.57;;;;;;;29.69;32.43;93502.00;5090266;28;20055;-84
2021/08/15 08:52:51;;;;;;;7.70;4.47;;;;;;;28.42;33.76;93476.84;5091175;28;20501;-84
2021/08/15 08:55:19;;;;;;;6.78;5.07;;;;;;;28.93;34.54;93505.25;5096504;28;20047;-85
2021/08/15 08:57:46;;;;;;;9.65;4.93;;;;;;;28.07;34.12;93455.75;5092098;28;20047;-85
2021/08/15 09:00:14;;;;;;;7.10;5.15;;;;;;;28.22;34.08;93486.94;5090210;28;20084;-85
2021/08/15 09:02:41;;;;;;;8.05;4.45;;;;;;;27.76;34.80;93446.97;5089928;28;20048;-85
2021/08/15 09:05:10;;;;;;;7.40;4.50;;;;;;;27.88;34.75;93484.06;5090062;28;20083;-85
2021/08/15 09:07:38;;;;;;;6.55;3.83;;;;;;;27.87;34.70;93492.28;5090124;28;20527;-83
2021/08/15 09:10:08;;;;;;;10.63;5.68;;;;;;;27.99;34.99;93496.91;5089567;28;20078;-84
2021/08/15 09:12:37;;;;;;;7.38;4.85;;;;;;;27.77;34.90;93492.59;5089496;28;20051;-84
2021/08/15 09:15:13;;;;;;;6.75;4.72;;;;;;;28.06;33.91;93486.69;5090361;28;20047;-83
2021/08/15 09:17:41;;;;;;;11.32;4.70;;;;;;;28.15;34.01;93489.31;5089615;28;20044;-84
2021/08/15 09:20:09;;;;;;;6.90;4.00;;;;;;;27.57;35.45;93500.00;5089910;28;20048;-85
2021/08/15 09:22:38;;;;;;;10.85;6.07;;;;;;;27.63;34.84;93488.25;5089947;28;20071;-85
2021/08/15 09:25:09;;;;;;;8.05;4.72;;;;;;;27.74;33.58;93447.28;5089698;28;20051;-84
2021/08/15 09:27:39;;;;;;;5.22;3.97;;;;;;;28.10;33.58;93476.25;5089443;28;20604;-84
2021/08/15 09:30:15;;;;;;;8.93;4.18;;;;;;;27.66;34.21;93463.88;5089568;28;20058;-85
2021/08/15 09:32:51;;;;;;;5.70;4.35;;;;;;;28.30;33.47;93480.13;5089496;28;20047;-84
2021/08/15 09:35:21;;;;;;;5.05;3.58;;;;;;;28.33;33.02;93478.72;5089727;28;20408;-86
2021/08/15 09:37:54;;;;;;;7.65;4.30;;;;;;;28.49;33.09;93477.09;5089389;28;20509;-84
2021/08/15 09:40:23;;;;;;;5.85;3.90;;;;;;;28.44;31.80;93456.16;5089454;28;20048;-86
2021/08/15 09:42:52;;;;;;;6.38;3.80;;;;;;;28.55;31.65;93411.63;5089461;28;20056;-87
2021/08/15 09:45:34;;;;;;;7.80;3.83;;;;;;;29.15;29.96;93453.94;5089383;28;20780;-87
2021/08/15 09:48:20;;;;;;;6.88;3.92;;;;;;;28.66;30.51;93441.88;5089550;28;20055;-85
2021/08/15 09:51:16;;;;;;;6.13;3.78;;;;;;;28.56;30.40;93452.06;5089201;28;20048;-84
2021/08/15 09:53:46;;;;;;;5.20;3.80;;;;;;;28.73;30.45;93417.63;5086154;28;20079;-86
2021/08/15 09:56:14;;;;;;;4.85;3.53;;;;;;;28.61;31.05;93457.16;5089589;28;20040;-85
2021/08/15 09:58:42;;;;;;;5.15;3.63;;;;;;;28.85;30.53;93450.50;5089040;28;20101;-85
2021/08/15 10:01:11;;;;;;;5.53;3.75;;;;;;;28.71;29.60;93456.81;5089176;28;20122;-85
2021/08/15 10:03:41;;;;;;;5.75;3.38;;;;;;;29.04;29.20;93447.47;5089354;28;20249;-86
2021/08/15 10:06:13;;;;;;;6.60;3.83;;;;;;;29.28;28.87;93446.06;5089107;28;20044;-85
2021/08/15 10:08:40;;;;;;;4.88;3.00;;;;;;;29.34;27.41;93437.63;5088946;28;20052;-84
2021/08/15 10:11:07;;;;;;;5.30;3.00;;;;;;;29.44;25.07;93456.84;5088966;28;20052;-84
2021/08/15 10:13:34;;;;;;;5.35;2.83;;;;;;;29.26;25.95;93446.41;5089369;28;20052;-83
2021/08/15 10:16:07;;;;;;;6.00;3.10;;;;;;;29.11;26.59;93423.19;5088960;28;20059;-84
2021/08/15 10:18:38;;;;;;;4.75;2.92;;;;;;;28.89;27.47;93417.09;5089004;28;20556;-84
2021/08/15 10:21:13;;;;;;;6.07;3.13;;;;;;;29.30;27.71;93422.72;5089366;28;20059;-84
2021/08/15 10:23:42;;;;;;;4.57;3.25;;;;;;;29.45;27.07;93413.41;5092079;28;20413;-84
2021/08/15 10:26:54;;;;;;;4.90;3.15;;;;;;;29.21;27.78;93431.50;5093334;28;20052;-84
2021/08/15 10:29:43;;;;;;;5.00;2.95;;;;;;;29.38;27.28;93394.66;5093124;28;20492;-85
2021/08/15 10:32:17;;;;;;;5.20;3.13;;;;;;;29.23;26.20;93390.72;5092851;28;20129;-86
2021/08/15 10:35:17;;;;;;;5.57;3.47;;;;;;;29.65;27.87;93426.97;5092744;28;20054;-83
2021/08/15 10:37:47;;;;;;;5.45;3.35;;;;;;;29.69;27.65;93441.88;5072565;28;20044;-84
2021/08/15 10:40:59;;;;;;;6.35;3.22;;;;;;;29.87;27.69;93421.31;5072656;28;20436;-87
2021/08/15 10:44:07;;;;;;;8.93;3.28;;;;;;;30.05;28.26;93415.06;5072698;28;20182;-86
2021/08/15 10:46:35;;;;;;;5.88;3.42;;;;;;;29.51;28.25;93424.59;5072749;28;20048;-83
2021/08/15 10:49:06;;;;;;;6.03;3.75;;;;;;;29.39;29.37;93420.00;5072277;28;20079;-83
2021/08/15 10:51:44;;;;;;;5.32;3.80;;;;;;;29.89;28.54;93422.88;5072529;28;20059;-84
2021/08/15 10:54:44;;;;;;;8.73;3.45;;;;;;;29.82;28.39;93418.09;5072351;28;20055;-85
2021/08/15 10:57:11;;;;;;;6.85;3.67;;;;;;;29.50;28.89;93407.19;5072823;28;20052;-84
2021/08/15 10:59:39;;;;;;;7.28;3.88;;;;;;;29.18;29.59;93395.13;5072413;28;20103;-85
2021/08/15 11:02:10;;;;;;;6.72;3.47;;;;;;;29.79;29.42;93398.34;5072405;28;20052;-84
2021/08/15 11:04:39;;;;;;;6.03;4.07;;;;;;;29.89;28.56;93399.78;5072161;28;20055;-84
2021/08/15 11:07:06;;;;;;;8.57;4.05;;;;;;;29.82;28.58;93399.56;5072255;28;20051;-84
2021/08/15 11:09:54;;;;;;;5.70;4.00;;;;;;;30.10;28.75;93405.06;5072183;28;20040;-83
2021/08/15 11:12:21;;;;;;;6.18;4.10;;;;;;;29.79;29.36;93390.41;5071953;28;20064;-85
2021/08/15 11:14:56;;;;;;;4.88;3.53;;;;;;;29.96;28.46;93386.81;5083169;28;20044;-83
2021/08/15 11:17:24;;;;;;;9.75;4.75;;;;;;;29.95;29.18;93376.53;5090114;28;20051;-85
2021/08/15 11:19:52;;;;;;;6.63;4.30;;;;;;;30.24;28.88;93399.47;5092149;28;20139;-84
2021/08/15 11:22:27;;;;;;;7.25;4.00;;;;;;;30.19;28.39;93367.88;5099833;28;20897;-84
2021/08/15 11:24:58;;;;;;;5.15;3.50;;;;;;;30.16;28.71;93400.31;5112379;28;20047;-83
2021/08/15 11:27:34;;;;;;;11.95;3.83;;;;;;;29.99;28.84;93394.09;5091949;28;20052;-84
2021/08/15 11:30:06;;;;;;;5.05;3.50;;;;;;;30.23;28.67;93386.53;5092116;28;20048;-84
2021/08/15 11:32:34;;;;;;;8.10;4.30;;;;;;;30.45;28.55;93381.91;5091982;28;20397;-84
2021/08/15 11:35:06;;;;;;;5.53;3.90;;;;;;;30.86;27.43;93384.66;5090798;28;20048;-84